METAR Data
IDs: Format: Raw Decoded Include TAF

Data at: 1711 UTC 16 Oct 2021

KRFI 161655Z AUTO 04007G16KT 10SM CLR 21/02 A3035 RMK AO2 T02060019
KRFI 161635Z AUTO 01011G16KT 10SM CLR 20/03 A3036 RMK AO2 T02020034
KRFI 161615Z AUTO 03010G16KT 10SM CLR 20/04 A3036 RMK AO2 T01970036
KRFI 161555Z AUTO 02010KT 10SM CLR 20/05 A3035 RMK AO2 T01970045
KRFI 161535Z AUTO 35011KT 10SM CLR 19/05 A3035 RMK AO2 T01850051
KRFI 161515Z AUTO 36007KT 10SM CLR 18/07 A3035 RMK AO2 T01800073
KRFI 161455Z AUTO 02008KT 10SM CLR 17/07 A3035 RMK AO2 T01690073
KRFI 161435Z AUTO 35005KT 10SM CLR 16/08 A3035 RMK AO2 T01590078
KRFI 161415Z AUTO 01004KT 10SM CLR 14/08 A3034 RMK AO2 T01440081
KRFI 161355Z AUTO 00000KT 10SM CLR 13/08 A3034 RMK AO2 T01310080
KRFI 161335Z AUTO 36004KT 10SM CLR 12/08 A3033 RMK AO2 T01190080
KRFI 161315Z AUTO 00000KT 10SM CLR 10/08 A3033 RMK AO2 T01030080
KRFI 161255Z AUTO 00000KT 10SM CLR 09/07 A3032 RMK AO2 T00910069
KRFI 161235Z AUTO 00000KT 10SM CLR 09/07 A3031 RMK AO2 T00860067
KRFI 161215Z AUTO 00000KT 10SM CLR 09/07 A3030 RMK AO2 T00900068
KRFI 161155Z AUTO 00000KT 10SM CLR 10/07 A3030 RMK AO2 T01010068 10156 20090
KRFI 161135Z AUTO 00000KT 10SM CLR 10/07 A3029 RMK AO2 T01020069
KRFI 161115Z AUTO 34005KT 10SM CLR 11/07 A3028 RMK AO2 T01050070
KRFI 161055Z AUTO 33004KT 10SM CLR 10/07 A3027 RMK AO2 T00990071
KRFI 161035Z AUTO 00000KT 10SM CLR 10/07 A3027 RMK AO2 T00960073
KRFI 161015Z AUTO 00000KT 10SM CLR 10/07 A3027 RMK AO2 T01030070
KRFI 160955Z AUTO 00000KT 10SM CLR 12/07 A3027 RMK AO2 T01150070
KRFI 160935Z AUTO 00000KT 10SM CLR 12/07 A3026 RMK AO2 T01160072
KRFI 160915Z AUTO 33003KT 10SM CLR 12/07 A3026 RMK AO2 T01200072
KRFI 160855Z AUTO 34003KT 10SM CLR 12/08 A3026 RMK AO2 T01210075
KRFI 160835Z AUTO 34003KT 10SM CLR 13/08 A3026 RMK AO2 T01260075
KRFI 160815Z AUTO 34004KT 10SM CLR 13/08 A3025 RMK AO2 T01270076
KRFI 160755Z AUTO 00000KT 10SM CLR 13/08 A3026 RMK AO2 T01310075
KRFI 160735Z AUTO 00000KT 10SM CLR 14/08 A3025 RMK AO2 T01350075
KRFI 160715Z AUTO 00000KT 10SM CLR 14/07 A3025 RMK AO2 T01390073
KRFI 160655Z AUTO 36005KT 10SM CLR 15/07 A3024 RMK AO2 T01470071
KRFI 160635Z AUTO 35005KT 10SM CLR 15/07 A3024 RMK AO2 T01500074
KRFI 160615Z AUTO 34005KT 10SM CLR 16/08 A3024 RMK AO2 T01550075
KRFI 160555Z AUTO 34006KT 10SM CLR 16/08 A3023 RMK AO2 T01560075 10224 20156 403020156
KRFI 160535Z AUTO 34004KT 10SM CLR 16/08 A3022 RMK AO2 T01580076
KRFI 160515Z AUTO 35006KT 10SM CLR 16/08 A3022 RMK AO2 T01620076
KRFI 160455Z AUTO 35007KT 10SM CLR 17/08 A3021 RMK AO2 T01660077
KRFI 160435Z AUTO 35007KT 10SM CLR 17/08 A3020 RMK AO2 T01700078
KRFI 160415Z AUTO 34005G14KT 10SM CLR 17/08 A3019 RMK AO2 T01730078
KRFI 160355Z AUTO 35008G16KT 10SM CLR 18/08 A3018 RMK AO2 T01770082
KRFI 160335Z AUTO 34009G14KT 10SM CLR 18/09 A3017 RMK AO2 T01800086
KRFI 160315Z AUTO 34006KT 10SM CLR 18/09 A3016 RMK AO2 T01830090
KRFI 160255Z AUTO 34010G16KT 300V360 10SM CLR 19/09 A3014 RMK AO2 T01870091
KRFI 160235Z AUTO 34010G16KT 10SM CLR 19/10 A3014 RMK AO2 T01910096
KRFI 160215Z AUTO 33010G18KT 300V360 10SM CLR 20/11 A3013 RMK AO2 T01950107
KRFI 160155Z AUTO 33008G15KT 300V360 10SM CLR 20/12 A3012 RMK AO2 T01990122
KRFI 160135Z AUTO 33004KT 10SM CLR 20/14 A3011 RMK AO2 T02010135
KRFI 160115Z AUTO 33005KT 10SM CLR 21/14 A3009 RMK AO2 T02050141
KRFI 160055Z AUTO 34006KT 10SM CLR 21/14 A3008 RMK AO2 T02110142
KRFI 160035Z AUTO 33006KT 10SM CLR 21/15 A3007 RMK AO2 T02140147
KRFI 160015Z AUTO 32008G18KT 10SM CLR 22/15 A3006 RMK AO2 T02190150
KRFI 152355Z AUTO 32007G16KT 10SM CLR 23/16 A3005 RMK AO2 T02250161 10302 20225
KRFI 152315Z AUTO 33007KT 10SM CLR 25/18 A3000 RMK AO2 T02450176
KRFI 152255Z AUTO 31011G20KT 10SM SCT035 25/18 A2999 RMK AO2 T02520181
KRFI 152235Z AUTO 31011G17KT 290V350 10SM SCT037 SCT047 SCT060 26/19 A2998 RMK AO2 T02640188
KRFI 152215Z AUTO 32006KT 10SM SCT041 SCT047 BKN060 28/18 A2997 RMK AO2 T02750180
KRFI 152155Z AUTO 28009G15KT 10SM SCT043 BKN049 BKN060 28/18 A2996 RMK AO2 T02810182
KRFI 152135Z AUTO 29009KT 10SM SCT049 29/19 A2995 RMK AO2 T02850191
KRFI 152115Z AUTO 28010G17KT 10SM CLR 28/19 A2995 RMK AO2 T02820187
KRFI 152055Z AUTO 30011KT 270V350 10SM CLR 29/20 A2994 RMK AO2 T02890196
KRFI 152035Z AUTO 27011G18KT 10SM CLR 29/20 A2994 RMK AO2 T02870203
KRFI 152015Z AUTO 27013G16KT 10SM SCT030 SCT039 29/21 A2994 RMK AO2 T02860206
KRFI 151955Z AUTO 28011G17KT 10SM SCT030 BKN036 BKN041 28/21 A2994 RMK AO2 T02840211
KRFI 151935Z AUTO 26012G17KT 10SM SCT028 BKN033 BKN041 30/22 A2994 RMK AO2 T02960217
KRFI 151915Z AUTO 26006KT 10SM SCT028 BKN034 BKN042 29/22 A2993 RMK AO2 T02900219
KRFI 151855Z AUTO 25007KT 210V270 10SM BKN028 BKN047 BKN055 29/22 A2994 RMK AO2 T02850215
KRFI 151835Z AUTO 27009KT 10SM BKN028 BKN034 BKN047 30/22 A2994 RMK AO2 T03000217
KRFI 151815Z AUTO 25006KT 10SM BKN028 BKN034 OVC047 29/22 A2995 RMK AO2 T02860219
KRFI 151755Z AUTO 25006KT 10SM BKN028 OVC034 28/21 A2995 RMK AO2 T02830213 10291 20230
KRFI 151735Z AUTO 23008KT 170V240 10SM SCT028 BKN034 29/22 A2996 RMK AO2 T02900215
KRFI 151715Z AUTO 24008KT 10SM SCT026 28/21 A2996 RMK AO2 T02820213
KRFI 151655Z AUTO 24010G15KT 10SM CLR 29/21 A2996 RMK AO2 T02860214
KRFI 151635Z AUTO 22007KT 10SM SCT024 SCT029 28/22 A2997 RMK AO2 T02760215
KRFI 151615Z AUTO 22006KT 10SM SCT027 27/21 A2997 RMK AO2 T02680214
KRFI 151555Z AUTO 23007KT 10SM SCT021 BKN027 26/22 A2996 RMK AO2 T02560217
KRFI 151535Z AUTO 22006KT 10SM SCT014 BKN022 OVC028 26/22 A2996 RMK AO2 T02620221
KRFI 151515Z AUTO 22007KT 10SM BKN012 OVC020 25/22 A2996 RMK AO2 T02530222
KRFI 151455Z AUTO 22004KT 10SM SCT008 OVC015 25/23 A2995 RMK AO2 T02530228
KRFI 151435Z AUTO 22004KT 10SM SCT008 OVC015 24/23 A2995 RMK AO2 T02420226
KRFI 151415Z AUTO 20005KT 10SM OVC008 24/23 A2995 RMK AO2 T02380225
KRFI 151355Z AUTO 23003KT 10SM OVC008 24/22 A2994 RMK AO2 T02360223
KRFI 151335Z AUTO 19003KT 10SM OVC008 24/22 A2993 RMK AO2 T02360223
KRFI 151315Z AUTO 00000KT 10SM OVC008 23/22 A2992 RMK AO2 T02330222
KRFI 151255Z AUTO 17004KT 10SM OVC008 23/22 A2991 RMK AO2 T02310220
KRFI 151235Z AUTO 17004KT 10SM OVC008 23/22 A2991 RMK AO2 T02310220
KRFI 151215Z AUTO 18004KT 10SM SCT008 OVC017 23/22 A2991 RMK AO2 T02310221
KRFI 151155Z AUTO 18004KT 10SM BKN008 OVC017 23/22 A2991 RMK AO2 70005 T02300220 10230 20215
KRFI 151135Z AUTO 18005KT 10SM OVC008 23/22 A2990 RMK AO2 T02300221
KRFI 151115Z AUTO 20005KT 10SM OVC008 23/22 A2990 RMK AO2 T02300222
KRFI 151055Z AUTO 19004KT 10SM OVC006 23/22 A2989 RMK AO2 T02280222
KRFI 151035Z AUTO 20004KT 10SM OVC004 23/23 A2989 RMK AO2 T02300225
KRFI 151015Z AUTO 20008KT 5SM BR OVC004 23/23 A2989 RMK AO2 T02300225
KRFI 150955Z AUTO 18006KT 7SM OVC004 23/23 A2988 RMK AO2 T02300225
KRFI 150935Z AUTO 17004KT 7SM OVC004 23/23 A2988 RMK AO2 T02290225
KRFI 150915Z AUTO 16004KT 7SM OVC004 23/22 A2988 RMK AO2 T02270223
KRFI 150855Z AUTO 15005KT 7SM BKN006 OVC011 22/22 A2989 RMK AO2 T02240220
KRFI 150835Z AUTO 16003KT 5SM BR BKN010 BKN016 OVC031 22/22 A2989 RMK AO2 T02220218
KRFI 150815Z AUTO 14003KT 4SM BR SCT001 BKN012 OVC029 22/22 A2989 RMK AO2 T02210217
KRFI 150755Z AUTO 00000KT 3SM BR BKN001 BKN021 OVC037 22/22 A2989 RMK AO2 T02200216
KRFI 150735Z AUTO 00000KT 3SM BR OVC001 22/22 A2990 RMK AO2 T02200216
KRFI 150715Z AUTO 00000KT 1 3/4SM BR OVC001 22/22 A2990 RMK AO2 T02220218
KRFI 150655Z AUTO 14003KT 3/4SM BR OVC001 22/22 A2990 RMK AO2 T02210217
KRFI 150635Z AUTO 15003KT 1/2SM FG OVC001 22/21 A2990 RMK AO2 T02180213
KRFI 150615Z AUTO 13003KT 1 1/4SM BR SCT001 SCT035 BKN042 22/21 A2990 RMK AO2 T02150210
KRFI 150555Z AUTO 00000KT 2 1/2SM BR SCT044 22/21 A2991 RMK AO2 T02180213 10241 20218 402620218
KRFI 150535Z AUTO 00000KT 3SM BR SCT060 22/21 A2991 RMK AO2 T02190214
KRFI 150515Z AUTO 00000KT 4SM BR OVC060 22/22 A2991 RMK AO2 T02210216